GCXOGCLA

Guest
Details From GCXO - Tenerife Norte - Los Rodeos
To GCLA - La Palma
Flight Number -
Tags generated
Created
Modified
Stats Distance 84 nm / 155 km
Max Altitude 1,700 ft / 518 m
Waypoints 3
Social Downloads 0
Likes 0
Share VATSIM

Download

Looking for another format? Having issues loading an existing format? Contact us
Advertisement - Login to hide

Notes

Basic altitude profile: - Ascent Rate: 2500ft/min - Ascent Speed: 250kts - Cruise Altitude: 35000ft - Cruise Speed: 420kts - Descent Rate: 1500ft/min - Descent Speed: 250kts Options: - Use NATs: no - Use PACOTS: no - Use low airways: yes - Use high airways: no

Route

GCXO TFN GCLA

ID Type Via Altitude Latitude Longitude Leg Dist Tot Dist Heading (true) Name
O GCXO APT - 0 ft / 0 m 28.48266˚ -16.34154˚ - 0 nm - Tenerife Norte - Los Rodeos
TFN VOR - 1,700 ft / 518 m 28.53683˚ -16.26878˚ 5 nm 5 nm 50° / 50° TENERIFE NORTE VOR-DME
O GCLA APT - 0 ft / 0 m 28.62648˚ -17.75561˚ 78 nm 83 nm 274° / 274° La Palma

Altitude Profile

Advertisement - Login to hide

GCXO

Details ICAO GCXO (TFN)
Name Tenerife Norte - Los Rodeos
Region Canary Islands
Timezone Atlantic/Canary (UTC+0.0)
Stats Elevation 2,076 ft / 633 m (AMSL)
Location 28.482656° -16.341541°
Runways 1
Magnetic Variation 5.002° W

METAR

GCXO 162230Z 30014KT 2500 RA BKN004 15/15 Q1024 NOSIG

Decode

TAF

TAF GCXO 162000Z 1621/1721 31012KT 9999 FEW005 BKN012 TX15/1714Z TN12/1706Z TEMPO 1621/1710 2500 DZRA BCFG BKN005 PROB40 TEMPO 1621/1709 0500 FG BKN001

Decode

Departure Runways

ID Width Length Bearing (true) Bearing (mag) Surface Threshold Offset Overrun Length
12 148 ft / 45 m 11,165 ft / 3,403 m 110.67° 115.67° Asphalt 0 ft / 0 m 197 ft / 60 m
30 148 ft / 45 m 11,165 ft / 3,403 m 290.69° 295.69° Asphalt 0 ft / 0 m 197 ft / 60 m

GCLA

Details ICAO GCLA (SPC)
Name La Palma
Region Canary Islands
Timezone Atlantic/Canary (UTC+0.0)
Stats Elevation 107 ft / 33 m (AMSL)
Location 28.626480° -17.755613°
Runways 1
Magnetic Variation 5.521° W

METAR

GCLA 162230Z AUTO 33004KT 280V030 9999 FEW034/// SCT041/// 20/16 Q1024

Decode

TAF

TAF GCLA 162000Z 1621/1721 02015KT 9999 BKN030 TX20/1714Z TN16/1706Z PROB40 TEMPO 1621/1720 4900 RA

Decode

Destination Runways

ID Width Length Bearing (true) Bearing (mag) Surface Threshold Offset Overrun Length
01 148 ft / 45 m 7,240 ft / 2,207 m 359.02° 4.54° Asphalt 0 ft / 0 m 279 ft / 85 m
19 148 ft / 45 m 7,240 ft / 2,207 m 179.02° 184.54° Asphalt 0 ft / 0 m 236 ft / 72 m

Popular Alternatives